createdAt,value
2022-07-25T00:04:37.679Z,22.30
2022-07-25T00:10:50.825Z,22.50
2022-07-25T00:14:00.077Z,22.60
2022-07-25T00:17:16.974Z,22.60
2022-07-25T00:24:13.616Z,22.90
2022-07-25T00:30:44.040Z,22.70
2022-07-25T00:39:20.212Z,22.40
2022-07-25T00:45:21.215Z,22.30
2022-07-25T00:51:18.588Z,22.40
2022-07-25T00:58:02.567Z,22.70
2022-07-25T01:04:03.989Z,22.80
2022-07-25T01:07:18.373Z,22.80
2022-07-25T01:10:14.414Z,22.70
2022-07-25T01:13:21.725Z,22.80
2022-07-25T01:16:40.602Z,22.80
2022-07-25T01:19:59.627Z,22.70
2022-07-25T01:26:01.690Z,22.40
2022-07-25T01:32:02.392Z,22.40
2022-07-25T01:35:20.953Z,22.40
2022-07-25T01:41:22.924Z,22.30
2022-07-25T01:51:26.445Z,21.80
2022-07-25T01:54:43.449Z,21.70
2022-07-25T02:02:08.983Z,21.50
2022-07-25T02:04:59.858Z,21.30
2022-07-25T02:08:03.060Z,21.30
2022-07-25T02:11:24.634Z,21.20
2022-07-25T02:18:03.644Z,21.10
2022-07-25T02:21:24.408Z,21.10
2022-07-25T02:24:14.903Z,21.10
2022-07-25T02:27:26.173Z,21.10
2022-07-25T02:33:26.066Z,21.10
2022-07-25T02:36:10.645Z,21.10
2022-07-25T02:38:59.360Z,21.10
2022-07-25T02:42:06.131Z,21.20
2022-07-25T02:44:56.272Z,21.30
2022-07-25T02:48:04.939Z,21.30
2022-07-25T02:50:53.711Z,21.20
2022-07-25T02:53:58.855Z,21.10
2022-07-25T02:56:51.539Z,20.90
2022-07-25T02:59:40.219Z,20.90
2022-07-25T03:02:47.871Z,20.80
2022-07-25T03:05:37.175Z,20.80
2022-07-25T03:08:45.790Z,20.70
2022-07-25T03:11:34.968Z,20.80
2022-07-25T03:17:27.703Z,20.80
2022-07-25T03:20:18.781Z,20.80
2022-07-25T03:23:33.272Z,20.80
2022-07-25T03:26:45.774Z,20.80
2022-07-25T03:33:31.146Z,20.70
2022-07-25T03:36:22.251Z,20.50
2022-07-25T03:39:27.675Z,20.40
2022-07-25T03:42:16.483Z,20.30
2022-07-25T03:48:08.776Z,20.20
2022-07-25T03:50:58.870Z,20.30
2022-07-25T03:54:49.627Z,20.30
2022-07-25T04:01:32.980Z,20.50
2022-07-25T04:04:48.965Z,20.50
2022-07-25T04:08:08.949Z,20.40
2022-07-25T04:11:27.891Z,20.40
2022-07-25T04:14:16.551Z,20.40
2022-07-25T04:17:06.500Z,20.40
2022-07-25T04:20:15.095Z,20.40
2022-07-25T04:23:04.960Z,20.50
2022-07-25T04:26:12.737Z,20.50
2022-07-25T04:29:03.810Z,20.60
2022-07-25T04:32:23.680Z,20.80
2022-07-25T04:35:37.457Z,20.90
2022-07-25T04:38:26.189Z,20.90
2022-07-25T04:41:37.023Z,20.90
2022-07-25T04:44:25.689Z,20.90
2022-07-25T04:47:33.027Z,21.00
2022-07-25T04:50:25.077Z,21.10
2022-07-25T04:53:32.517Z,21.20
2022-07-25T04:56:21.345Z,21.30
2022-07-25T04:59:31.485Z,21.50
2022-07-25T05:02:20.593Z,21.60
2022-07-25T05:08:53.790Z,22.20
2022-07-25T05:12:11.827Z,22.50
2022-07-25T05:15:02.082Z,22.70
2022-07-25T05:18:11.673Z,22.80
2022-07-25T05:21:00.394Z,22.90
2022-07-25T05:23:49.085Z,23.00
2022-07-25T05:30:59.977Z,23.10
2022-07-25T05:36:33.300Z,23.60
2022-07-25T05:39:21.986Z,23.70
2022-07-25T05:42:10.893Z,23.80
2022-07-25T05:44:59.617Z,24.00
2022-07-25T05:47:49.776Z,24.10
2022-07-25T05:50:38.604Z,24.20
2022-07-25T05:53:27.627Z,24.30
2022-07-25T05:56:16.418Z,24.40
2022-07-25T05:59:05.135Z,24.50
2022-07-25T06:01:53.917Z,24.50
2022-07-25T06:04:44.086Z,24.60
2022-07-25T06:07:32.817Z,24.80
2022-07-25T06:10:22.709Z,24.90
2022-07-25T06:13:11.508Z,24.90
2022-07-25T06:16:00.305Z,25.00
2022-07-25T06:18:49.017Z,25.10
2022-07-25T06:21:39.271Z,25.20
2022-07-25T06:24:27.957Z,25.30
2022-07-25T06:27:20.336Z,25.40
2022-07-25T06:30:19.792Z,25.60
2022-07-25T06:33:09.355Z,25.70
2022-07-25T06:35:58.102Z,25.90
2022-07-25T06:38:48.205Z,26.00
2022-07-25T06:41:38.090Z,26.10
2022-07-25T06:44:27.352Z,26.30
2022-07-25T06:47:16.059Z,26.40
2022-07-25T06:50:04.952Z,26.60
2022-07-25T06:52:56.292Z,26.70
2022-07-25T06:55:46.934Z,26.80
2022-07-25T06:58:35.613Z,26.90
2022-07-25T07:01:24.358Z,27.10
2022-07-25T07:04:13.098Z,27.20
2022-07-25T07:07:01.828Z,27.20
2022-07-25T07:09:50.489Z,27.30
2022-07-25T07:12:40.618Z,27.40
2022-07-25T07:15:30.345Z,27.60
2022-07-25T07:18:19.125Z,27.60
2022-07-25T07:21:08.198Z,27.80
2022-07-25T07:23:57.042Z,28.00
2022-07-25T07:26:46.045Z,28.00
2022-07-25T07:29:36.230Z,28.00
2022-07-25T07:32:26.855Z,28.20
2022-07-25T07:35:17.647Z,28.30
2022-07-25T07:38:06.550Z,28.40
2022-07-25T07:40:55.627Z,28.60
2022-07-25T07:43:44.324Z,28.60
2022-07-25T07:46:37.541Z,28.70
2022-07-25T07:49:26.414Z,28.80
2022-07-25T07:52:15.416Z,28.90
2022-07-25T07:55:25.158Z,28.90
2022-07-25T07:58:16.297Z,28.90
2022-07-25T08:01:05.998Z,29.00
2022-07-25T08:03:56.166Z,29.00
2022-07-25T08:06:44.881Z,29.10
2022-07-25T08:09:33.639Z,29.30
2022-07-25T08:12:22.350Z,29.60
2022-07-25T08:15:12.096Z,29.60
2022-07-25T08:18:00.795Z,29.70
2022-07-25T08:20:52.093Z,29.70
2022-07-25T08:23:40.855Z,29.90
2022-07-25T08:26:31.260Z,30.00
2022-07-25T08:29:22.894Z,30.20
2022-07-25T08:32:14.949Z,30.50
2022-07-25T08:35:06.995Z,31.00
2022-07-25T08:38:00.410Z,31.70
2022-07-25T08:40:49.672Z,32.30
2022-07-25T08:43:39.592Z,32.30
2022-07-25T08:46:30.357Z,31.80
2022-07-25T08:49:19.527Z,31.30
2022-07-25T08:52:10.479Z,30.90
2022-07-25T08:55:00.756Z,30.60
2022-07-25T08:57:52.853Z,30.70
2022-07-25T09:00:42.443Z,30.90
2022-07-25T09:03:31.332Z,30.90
2022-07-25T09:06:22.452Z,31.00
2022-07-25T09:09:11.173Z,31.10
2022-07-25T09:12:01.973Z,31.00
2022-07-25T09:14:50.726Z,30.90
2022-07-25T09:17:40.013Z,30.90
2022-07-25T09:20:39.825Z,30.80
2022-07-25T09:23:33.480Z,30.80
2022-07-25T09:26:22.194Z,31.00
2022-07-25T09:29:18.351Z,31.10
2022-07-25T09:32:17.581Z,31.50
2022-07-25T09:35:07.187Z,31.50
2022-07-25T09:37:56.012Z,31.50
2022-07-25T09:40:55.853Z,31.40
2022-07-25T09:43:45.567Z,31.20
2022-07-25T09:46:35.680Z,31.20
2022-07-25T09:49:24.490Z,31.20
2022-07-25T09:52:13.848Z,31.60
2022-07-25T09:55:05.341Z,32.10
2022-07-25T09:57:54.230Z,32.20
2022-07-25T10:00:43.809Z,32.20
2022-07-25T10:03:46.409Z,32.20
2022-07-25T10:06:41.450Z,32.00
2022-07-25T10:09:30.280Z,31.90
2022-07-25T10:12:21.985Z,31.90
2022-07-25T10:15:12.997Z,31.50
2022-07-25T10:18:08.350Z,31.40
2022-07-25T10:21:24.880Z,31.30
2022-07-25T10:24:14.754Z,31.40
2022-07-25T10:27:09.928Z,31.60
2022-07-25T10:29:58.849Z,31.60
2022-07-25T10:32:51.735Z,31.70
2022-07-25T10:35:40.614Z,31.60
2022-07-25T10:38:31.296Z,31.50
2022-07-25T10:41:21.927Z,31.50
2022-07-25T10:44:14.187Z,31.30
2022-07-25T10:47:07.461Z,31.00
2022-07-25T10:50:16.971Z,30.90
2022-07-25T10:53:09.350Z,30.60
2022-07-25T10:56:06.487Z,30.40
2022-07-25T10:58:57.022Z,30.20
2022-07-25T11:01:46.104Z,30.20
2022-07-25T11:04:35.436Z,30.10
2022-07-25T11:07:24.216Z,30.00
2022-07-25T11:10:12.890Z,30.10
2022-07-25T11:13:03.119Z,30.20
2022-07-25T11:15:52.074Z,30.20
2022-07-25T11:18:42.375Z,30.20
2022-07-25T11:21:31.042Z,30.30
2022-07-25T11:24:19.908Z,30.60
2022-07-25T11:27:12.234Z,31.20
2022-07-25T11:30:09.892Z,31.30
2022-07-25T11:33:01.517Z,31.60
2022-07-25T11:35:50.341Z,31.80
2022-07-25T11:38:40.570Z,31.60
2022-07-25T11:41:32.336Z,31.40
2022-07-25T11:44:32.277Z,31.30
2022-07-25T11:47:27.189Z,31.30
2022-07-25T11:50:16.168Z,31.20
2022-07-25T11:53:07.656Z,31.00
2022-07-25T11:55:56.451Z,30.70
2022-07-25T11:58:45.894Z,30.40
2022-07-25T12:01:39.449Z,30.10
2022-07-25T12:04:29.875Z,29.90
2022-07-25T12:07:18.768Z,29.60
2022-07-25T12:10:09.465Z,29.50
2022-07-25T12:12:59.084Z,29.30
2022-07-25T12:15:48.136Z,29.10
2022-07-25T12:18:38.812Z,29.00
2022-07-25T12:21:29.207Z,28.60
2022-07-25T12:24:17.930Z,28.50
2022-07-25T12:27:06.682Z,28.50
2022-07-25T12:29:55.362Z,28.60
2022-07-25T12:32:44.601Z,28.90
2022-07-25T12:35:33.757Z,29.10
2022-07-25T12:38:23.886Z,29.20
2022-07-25T12:41:17.711Z,29.10
2022-07-25T12:44:06.991Z,28.90
2022-07-25T12:46:55.750Z,29.00
2022-07-25T12:49:44.823Z,29.10
2022-07-25T12:52:33.699Z,29.30
2022-07-25T12:55:24.475Z,29.30
2022-07-25T12:58:15.220Z,29.60
2022-07-25T13:01:04.061Z,29.90
2022-07-25T13:03:52.787Z,30.40
2022-07-25T13:06:41.600Z,30.70
2022-07-25T13:09:30.605Z,30.90
2022-07-25T13:12:20.939Z,31.00
2022-07-25T13:15:10.704Z,31.20
2022-07-25T13:17:59.387Z,31.30
2022-07-25T13:20:48.211Z,31.40
2022-07-25T13:23:37.031Z,31.50
2022-07-25T13:26:25.960Z,31.60
2022-07-25T13:29:16.034Z,31.90
2022-07-25T13:32:08.130Z,31.90
2022-07-25T13:34:56.916Z,31.80
2022-07-25T13:37:45.637Z,32.00
2022-07-25T13:40:34.371Z,32.00
2022-07-25T13:43:23.121Z,32.10
2022-07-25T13:46:13.348Z,32.20
2022-07-25T13:49:02.228Z,32.20
2022-07-25T13:51:51.090Z,32.10
2022-07-25T13:54:39.983Z,31.70
2022-07-25T13:57:28.727Z,31.40
2022-07-25T14:00:18.218Z,31.40
2022-07-25T14:03:08.444Z,31.60
2022-07-25T14:05:57.185Z,31.80
2022-07-25T14:08:45.952Z,32.00
2022-07-25T14:11:34.651Z,32.00
2022-07-25T14:14:23.338Z,31.70
2022-07-25T14:17:12.085Z,31.40
2022-07-25T14:20:02.292Z,31.40
2022-07-25T14:22:51.054Z,31.30
2022-07-25T14:25:39.910Z,31.50
2022-07-25T14:28:28.689Z,31.80
2022-07-25T14:31:17.609Z,31.70
2022-07-25T14:34:06.560Z,31.40
2022-07-25T14:36:56.732Z,31.20
2022-07-25T14:39:45.413Z,31.20
2022-07-25T14:42:34.341Z,30.90
2022-07-25T14:45:23.192Z,30.70
2022-07-25T14:48:11.920Z,30.60
2022-07-25T14:51:00.626Z,30.70
2022-07-25T14:53:53.304Z,30.80
2022-07-25T14:56:43.378Z,30.90
2022-07-25T14:59:32.259Z,31.10
2022-07-25T15:02:21.056Z,31.30
2022-07-25T15:05:10.265Z,31.00
2022-07-25T15:07:59.032Z,30.70
2022-07-25T15:10:49.188Z,30.50
2022-07-25T15:13:38.027Z,30.30
2022-07-25T15:16:27.040Z,30.40
2022-07-25T15:19:26.089Z,30.70
2022-07-25T15:22:15.563Z,30.80
2022-07-25T15:28:15.796Z,30.70
2022-07-25T15:31:05.068Z,30.50
2022-07-25T15:33:54.246Z,30.30
2022-07-25T15:36:43.107Z,30.10
2022-07-25T15:39:31.900Z,29.90
2022-07-25T15:42:22.606Z,29.70
2022-07-25T15:45:32.534Z,29.30
2022-07-25T15:48:23.761Z,29.10
2022-07-25T15:51:12.757Z,29.10
2022-07-25T15:54:01.495Z,29.10
2022-07-25T15:56:50.938Z,29.30
2022-07-25T15:59:39.588Z,29.60
2022-07-25T16:02:29.717Z,29.90
2022-07-25T16:05:18.535Z,29.90
2022-07-25T16:08:08.337Z,30.00
2022-07-25T16:10:57.132Z,29.70
2022-07-25T16:13:45.922Z,29.50
2022-07-25T16:16:34.677Z,29.40
2022-07-25T16:19:24.873Z,29.30
2022-07-25T16:22:13.601Z,29.00
2022-07-25T16:25:03.102Z,28.80
2022-07-25T16:27:51.869Z,28.60
2022-07-25T16:30:40.629Z,28.60
2022-07-25T16:33:29.436Z,28.40
2022-07-25T16:36:20.577Z,28.20
2022-07-25T16:39:09.715Z,28.00
2022-07-25T16:41:58.871Z,27.90
2022-07-25T16:44:47.948Z,27.70
2022-07-25T16:47:36.809Z,27.60
2022-07-25T16:50:25.510Z,27.30
2022-07-25T16:53:15.631Z,27.20
2022-07-25T16:56:04.800Z,27.10
2022-07-25T16:58:54.397Z,26.90
2022-07-25T17:01:43.248Z,26.80
2022-07-25T17:04:32.127Z,26.70
2022-07-25T17:07:20.912Z,26.70
2022-07-25T17:10:11.833Z,26.50
2022-07-25T17:13:00.649Z,26.40
2022-07-25T17:15:49.429Z,26.20
2022-07-25T17:18:38.742Z,26.20
2022-07-25T17:21:27.447Z,26.20
2022-07-25T17:24:16.208Z,26.20
2022-07-25T17:27:07.521Z,26.10
2022-07-25T17:29:56.318Z,26.00
2022-07-25T17:32:45.168Z,25.90
2022-07-25T17:35:34.069Z,25.70
2022-07-25T17:38:26.967Z,25.40
2022-07-25T17:41:17.159Z,25.20
2022-07-25T17:44:11.594Z,25.20
2022-07-25T17:47:01.288Z,25.00
2022-07-25T17:49:49.996Z,24.80
2022-07-25T17:52:38.707Z,24.80
2022-07-25T17:55:28.578Z,24.80
2022-07-25T17:58:17.776Z,24.90
2022-07-25T18:01:10.452Z,24.90
2022-07-25T18:03:59.611Z,24.80
2022-07-25T18:06:48.323Z,24.80
2022-07-25T18:09:39.111Z,24.60
2022-07-25T18:12:29.634Z,24.60
2022-07-25T18:15:18.721Z,24.60
2022-07-25T18:18:10.536Z,24.60
2022-07-25T18:21:00.912Z,24.50
2022-07-25T18:23:49.606Z,24.50
2022-07-25T18:26:38.299Z,24.50
2022-07-25T18:29:27.014Z,24.50
2022-07-25T18:32:15.850Z,24.30
2022-07-25T18:35:06.976Z,24.20
2022-07-25T18:37:55.677Z,24.20
2022-07-25T18:40:44.559Z,24.20
2022-07-25T18:43:33.287Z,24.20
2022-07-25T18:46:23.239Z,24.20
2022-07-25T18:49:12.220Z,24.10
2022-07-25T18:52:02.349Z,24.00
2022-07-25T18:54:51.407Z,24.00
2022-07-25T18:57:40.302Z,23.90
2022-07-25T19:00:29.198Z,23.90
2022-07-25T19:03:18.247Z,24.00
2022-07-25T19:06:08.856Z,24.00
2022-07-25T19:08:59.170Z,24.00
2022-07-25T19:11:48.462Z,23.90
2022-07-25T19:14:37.182Z,23.90
2022-07-25T19:17:25.952Z,23.90
2022-07-25T19:20:15.013Z,23.90
2022-07-25T19:23:03.822Z,23.80
2022-07-25T19:25:55.624Z,23.80
2022-07-25T19:28:44.322Z,23.70
2022-07-25T19:31:33.079Z,23.60
2022-07-25T19:34:21.871Z,23.50
2022-07-25T19:37:10.550Z,23.40
2022-07-25T19:39:59.333Z,23.30
2022-07-25T19:42:49.457Z,23.10
2022-07-25T19:45:39.515Z,23.10
2022-07-25T19:48:28.259Z,22.90
2022-07-25T19:51:17.082Z,22.90
2022-07-25T19:54:08.442Z,22.90
2022-07-25T19:56:57.954Z,22.90
2022-07-25T19:59:48.143Z,22.80
2022-07-25T20:02:36.844Z,22.70
2022-07-25T20:05:25.726Z,22.60
2022-07-25T20:08:14.426Z,22.50
2022-07-25T20:11:03.215Z,22.50
2022-07-25T20:13:51.887Z,22.50
2022-07-25T20:16:42.428Z,22.50
2022-07-25T20:19:31.415Z,22.50
2022-07-25T20:22:20.775Z,22.50
2022-07-25T20:25:11.900Z,22.40
2022-07-25T20:28:01.330Z,22.40
2022-07-25T20:30:51.480Z,22.30
2022-07-25T20:33:41.725Z,22.30
2022-07-25T20:36:30.436Z,22.30
2022-07-25T20:39:19.141Z,22.30
2022-07-25T20:42:08.738Z,22.30
2022-07-25T20:44:57.795Z,22.20
2022-07-25T20:47:46.509Z,22.20
2022-07-25T20:50:37.642Z,22.20
2022-07-25T20:53:26.498Z,22.10
2022-07-25T20:56:15.210Z,22.10
2022-07-25T20:59:04.332Z,22.10
2022-07-25T21:01:53.998Z,22.10
2022-07-25T21:04:43.435Z,22.20
2022-07-25T21:07:33.564Z,22.10
2022-07-25T21:10:22.428Z,22.10
2022-07-25T21:13:11.317Z,22.10
2022-07-25T21:16:00.697Z,22.10
2022-07-25T21:18:49.369Z,22.00
2022-07-25T21:21:38.158Z,22.00
2022-07-25T21:24:28.371Z,22.00
2022-07-25T21:27:17.127Z,22.00
2022-07-25T21:30:06.848Z,21.90
2022-07-25T21:32:55.522Z,21.80
2022-07-25T21:35:50.441Z,21.70
2022-07-25T21:38:42.810Z,21.70
2022-07-25T21:41:33.032Z,21.60
2022-07-25T21:44:21.743Z,21.60
2022-07-25T21:47:13.334Z,21.50
2022-07-25T21:50:24.978Z,21.50
2022-07-25T21:53:15.703Z,21.40
2022-07-25T21:56:04.514Z,21.30
2022-07-25T21:58:54.578Z,21.20
2022-07-25T22:01:43.398Z,21.10
2022-07-25T22:04:32.336Z,21.00
2022-07-25T22:07:21.249Z,21.00
2022-07-25T22:10:12.498Z,21.00
2022-07-25T22:13:01.180Z,20.90
2022-07-25T22:15:51.445Z,20.90
2022-07-25T22:18:40.137Z,20.80
2022-07-25T22:21:28.983Z,20.80
2022-07-25T22:24:17.728Z,20.80
2022-07-25T22:27:06.599Z,20.70
2022-07-25T22:29:55.258Z,20.70
2022-07-25T22:32:45.454Z,20.70
2022-07-25T22:35:34.735Z,20.70
2022-07-25T22:38:23.461Z,20.60
2022-07-25T22:41:12.218Z,20.60
2022-07-25T22:44:00.976Z,20.60
2022-07-25T22:46:49.683Z,20.60
2022-07-25T22:49:39.910Z,20.60
2022-07-25T22:52:28.734Z,20.50
2022-07-25T22:55:17.502Z,20.60
2022-07-25T22:58:06.385Z,20.50
2022-07-25T23:00:55.209Z,20.40
2022-07-25T23:03:44.004Z,20.30
2022-07-25T23:06:34.328Z,20.20
2022-07-25T23:09:23.674Z,20.10
2022-07-25T23:12:12.439Z,20.10
2022-07-25T23:15:01.114Z,20.00
2022-07-25T23:17:49.820Z,20.00
2022-07-25T23:20:38.535Z,20.00
2022-07-25T23:23:28.635Z,19.90
2022-07-25T23:26:17.493Z,19.90
2022-07-25T23:29:06.410Z,19.90
2022-07-25T23:31:55.507Z,19.90
2022-07-25T23:34:44.585Z,19.90
2022-07-25T23:37:33.441Z,19.80
2022-07-25T23:40:23.685Z,19.90
2022-07-25T23:43:13.003Z,19.80
2022-07-25T23:46:04.020Z,19.80
2022-07-25T23:48:52.724Z,19.70
2022-07-25T23:51:41.535Z,19.60
2022-07-25T23:54:30.251Z,19.60
2022-07-25T23:57:20.840Z,19.60
